Latest Weather Observations for Holsworthy

IDN60901

Issued at 6:02 pm EST Saturday 5 September 2026 (issued every 10 minutes, with the page automatically refreshed every 10 minutes)

About weather observations | Map of Sydney area stations | Latest observations for Sydney area | Other Formats
Station Details ID: 066161 Name: HOLSWORTHY AERODROME AWS Lat: -33.99 Lon: 150.95 Height: 68.16 m
Data from the previous 72 hours. | See also: Recent months at Holsworthy
Date/Time
EST
Temp
°C
App
Temp
°C
Dew
Point
°C
Rel
Hum
%
Delta-T
°C
Wind Press
QNH
hPa
Press
MSL
hPa
Rain since
9am
mm
Dir  Spd
km/h
Gust
km/h
Spd
kts
Gust
kts
05/06:00pm 20.2 19.6 13.6 66 3.8 NNW 9 17 5 9 1009.1 1009.0 0.8
05/05:30pm 19.5 18.0 14.3 72 3.0 NNE 15 20 8 11 1008.8 1008.7 0.8
05/05:00pm 19.5 18.9 14.5 73 2.9 W 11 17 6 9 1010.4 1010.4 0.8
05/04:31pm 19.2 16.9 14.2 73 2.9 W 19 30 10 16 1009.8 1009.8 0.8
05/04:30pm 19.1 16.9 14.4 74 2.7 W 19 30 10 16 1009.8 1009.8 0.8
05/04:13pm 20.6 13.3 12.8 61 4.4 W 43 69 23 37 1010.0 1010.0 0.2
05/04:03pm 25.6 17.9 10.2 38 8.6 WSW 41 65 22 35 1009.4 1009.3 0.0
05/04:00pm 26.2 18.7 9.5 35 9.2 WSW 39 63 21 34 1009.0 1008.9 0.0
05/03:53pm 27.9 21.7 9.2 31 10.4 W 32 59 17 32 1008.1 1008.0 0.0
05/03:30pm 29.7 24.1 8.7 27 11.6 WNW 28 54 15 29 1006.9 1006.8 0.0
05/03:08pm 30.4 22.2 8.2 25 12.2 WNW 41 72 22 39 1006.7 1006.6 0.0
05/03:00pm 30.3 21.9 7.5 24 12.5 WNW 41 69 22 37 1006.6 1006.5 0.0
05/02:58pm 30.2 21.4 7.4 24 12.4 WNW 43 69 23 37 1006.4 1006.3 0.0
05/02:30pm 31.4 25.3 6.5 21 13.4 WNW 28 50 15 27 1006.1 1006.0 0.0
05/02:13pm 32.0 25.4 6.2 20 13.9 WNW 30 54 16 29 1005.9 1005.8 0.0
05/02:07pm 32.8 27.9 6.9 20 14.2 WNW 22 43 12 23 1005.8 1005.7 0.0
05/02:00pm 32.8 28.2 8.3 22 13.7 WNW 22 41 12 22 1005.9 1005.8 0.0
05/01:55pm 32.3 25.8 6.5 20 14.0 WNW 30 48 16 26 1005.8 1005.7 0.0
05/01:45pm 31.8 26.1 6.8 21 13.6 NW 26 52 14 28 1005.9 1005.8 0.0
05/01:30pm 30.6 26.6 8.9 26 12.1 N 20 32 11 17 1006.4 1006.3 0.0
05/01:00pm 29.0 23.9 9.2 29 11.0 N 26 43 14 23 1007.5 1007.4 0.0
05/12:30pm 28.0 22.7 8.3 29 10.7 N 26 41 14 22 1008.5 1008.4 0.0
05/12:09pm 28.0 23.1 8.3 29 10.7 N 24 37 13 20 1009.3 1009.2 0.0
05/12:00pm 28.1 22.4 8.4 29 10.8 N 28 43 15 23 1009.6 1009.5 0.0
05/11:50am 27.8 22.2 8.6 30 10.5 N 28 48 15 26 1009.8 1009.8 0.0
05/11:30am 27.5 23.3 8.4 30 10.4 N 20 33 11 18 1010.6 1010.6 0.0
05/11:00am 26.0 22.9 8.9 34 9.3 N 15 26 8 14 1011.4 1011.4 0.0
05/10:30am 24.3 21.3 9.1 38 8.2 N 15 22 8 12 1012.5 1012.5 0.0
05/10:00am 23.0 19.9 8.7 40 7.6 N 15 24 8 13 1013.6 1013.6 0.0
05/09:30am 21.6 18.6 9.2 45 6.6 NNW 15 24 8 13 1014.4 1014.3 0.0
05/09:00am 19.8 19.1 11.3 58 4.7 NE 6 11 3 6 1015.1 1015.0 0.0
05/08:30am 16.8 15.6 10.4 66 3.4 NW 7 11 4 6 1015.5 1015.4 0.0
05/08:00am 14.7 12.9 9.3 70 2.8 NNW 9 11 5 6 1015.7 1015.6 0.0
05/07:30am 14.1 13.7 9.7 75 2.3 NW 2 9 1 5 1016.0 1015.9 0.0
05/07:00am 11.9 11.8 9.5 85 1.2 CALM 0 0 0 0 1015.9 1015.8 0.0
05/06:30am 9.9 9.4 7.7 86 1.1 CALM 0 0 0 0 1016.1 1016.0 0.0
05/06:00am 10.2 9.7 8.0 86 1.1 CALM 0 0 0 0 1016.3 1016.2 0.0
05/05:30am 10.7 10.3 8.3 85 1.2 CALM 0 0 0 0 1016.0 1015.9 0.0
05/05:00am 10.7 9.6 8.3 85 1.2 W 4 9 2 5 1016.0 1015.9 0.0
05/04:30am 11.3 10.1 9.6 89 0.9 WNW 6 9 3 5 1016.2 1016.1 0.0
05/04:00am 9.9 8.3 8.0 88 0.9 WSW 6 9 3 5 1016.4 1016.3 0.0
05/03:30am 10.8 10.5 8.7 87 1.0 CALM 0 0 0 0 1016.2 1016.1 0.0
05/03:00am 11.0 10.8 8.9 87 1.0 CALM 0 0 0 0 1016.3 1016.2 0.0
05/02:30am 11.0 10.8 8.9 87 1.0 CALM 0 0 0 0 1016.9 1016.8 0.0
05/02:00am 10.9 10.6 8.8 87 1.0 CALM 0 0 0 0 1017.4 1017.3 0.0
05/01:30am 11.7 11.6 9.4 86 1.2 CALM 0 0 0 0 1017.8 1017.7 0.0
05/01:00am 11.9 11.7 9.1 83 1.4 CALM 0 0 0 0 1018.2 1018.1 0.0
05/12:30am 12.4 12.3 9.4 82 1.5 CALM 0 0 0 0 1018.4 1018.3 0.0
05/12:00am 12.5 11.0 9.3 81 1.6 ESE 7 9 4 5 1018.4 1018.3 0.0
 
Date/Time
EST
Temp
°C
App
Temp
°C
Dew
Point
°C
Rel
Hum
%
Delta-T
°C
Wind Press
QNH
hPa
Press
MSL
hPa
Rain since
9am
mm
Dir  Spd
km/h
Gust
km/h
Spd
kts
Gust
kts
04/11:30pm 12.6 12.5 9.4 81 1.6 CALM 0 0 0 0 1018.5 1018.4 0.0
04/11:00pm 12.8 12.6 9.1 78 1.9 CALM 0 0 0 0 1018.8 1018.7 0.0
04/10:30pm 14.2 14.0 9.2 72 2.6 CALM 0 0 0 0 1019.1 1019.0 0.0
04/10:00pm 15.6 15.1 9.5 67 3.2 ESE 2 9 1 5 1019.6 1019.5 0.0
04/09:30pm 15.5 15.4 9.6 68 3.1 CALM 0 0 0 0 1019.6 1019.5 0.0
04/09:00pm 16.5 15.2 9.9 65 3.5 SSE 7 11 4 6 1019.6 1019.5 0.0
04/08:30pm 16.9 15.3 10.1 64 3.6 SE 9 11 5 6 1019.1 1019.0 0.0
04/08:00pm 16.6 14.7 10.5 67 3.2 SSE 11 15 6 8 1019.0 1018.9 0.0
04/07:30pm 16.3 14.0 10.6 69 3.0 S 13 17 7 9 1018.6 1018.5 0.0
04/07:00pm 16.4 14.6 10.7 69 3.0 SSE 11 13 6 7 1018.2 1018.1 0.0
04/06:30pm 17.3 15.5 10.9 66 3.4 SE 11 13 6 7 1017.7 1017.6 0.0
04/06:00pm 17.9 16.0 10.5 62 4.0 SE 11 13 6 7 1017.4 1017.3 0.0
04/05:30pm 19.5 17.5 10.0 54 5.1 SE 11 15 6 8 1017.1 1017.0 0.0
04/05:00pm 21.0 19.2 9.3 47 6.2 ESE 9 15 5 8 1016.7 1016.6 0.0
04/04:30pm 23.0 21.1 6.7 35 8.4 N 6 13 3 7 1016.7 1016.6 0.0
04/04:00pm 23.7 21.6 6.5 33 8.9 ENE 7 13 4 7 1016.6 1016.5 0.0
04/03:30pm 23.3 20.7 6.1 33 8.8 WNW 9 17 5 9 1016.7 1016.6 0.0
04/03:00pm 23.2 20.3 6.5 34 8.6 NW 11 15 6 8 1016.9 1016.8 0.0
04/02:30pm 22.9 19.9 6.2 34 8.5 NW 11 20 6 11 1017.3 1017.2 0.0
04/02:00pm 22.6 18.7 5.5 33 8.6 W 15 22 8 12 1017.8 1017.7 0.0
04/01:30pm 22.6 19.1 5.5 33 8.6 W 13 20 7 11 1018.2 1018.1 0.0
04/01:00pm 21.9 18.3 4.9 33 8.4 NW 13 22 7 12 1018.7 1018.6 0.0
04/12:30pm 21.5 18.1 5.8 36 7.9 W 13 22 7 12 1019.1 1019.0 0.0
04/12:00pm 21.3 18.0 4.8 34 8.1 WNW 11 15 6 8 1019.7 1019.6 0.0
04/11:30am 20.3 17.2 5.5 38 7.3 WSW 11 20 6 11 1020.4 1020.3 0.0
04/11:00am 20.3 17.4 6.3 40 7.0 WNW 11 20 6 11 1021.1 1021.0 0.0
04/10:30am 19.5 16.2 4.4 37 7.3 W 11 19 6 10 1021.2 1021.1 0.0
04/10:00am 19.1 16.4 7.2 46 6.0 SW 11 17 6 9 1021.5 1021.4 0.0
04/09:30am 18.3 15.7 7.7 50 5.4 WSW 11 17 6 9 1021.8 1021.7 0.0
04/09:00am 16.6 13.5 7.3 54 4.6 W 13 22 7 12 1022.3 1022.3 0.0
04/08:30am 15.6 13.3 7.6 59 4.0 W 9 15 5 8 1022.3 1022.3 0.0
04/08:00am 14.4 12.6 7.9 65 3.2 WNW 7 11 4 6 1022.3 1022.3 0.0
04/07:30am 12.4 10.4 7.3 71 2.5 W 7 9 4 5 1022.0 1021.9 0.0
04/07:00am 10.5 8.1 6.8 78 1.7 WSW 9 11 5 6 1021.7 1021.6 0.0
04/06:30am 9.3 8.0 6.0 80 1.5 SW 2 7 1 4 1021.5 1021.4 0.0
04/06:00am 9.8 7.5 5.8 76 1.8 WSW 7 11 4 6 1021.2 1021.1 0.0
04/05:30am 9.4 6.7 5.6 77 1.7 WSW 9 11 5 6 1020.8 1020.7 0.0
04/05:00am 9.5 6.8 5.7 77 1.7 W 9 11 5 6 1020.5 1020.4 0.0
04/04:30am 10.0 7.7 5.8 75 1.9 SW 7 9 4 5 1020.4 1020.3 0.0
04/04:00am 10.6 7.9 5.6 71 2.3 WSW 9 13 5 7 1019.9 1019.8 0.0
04/03:30am 9.9 7.1 5.3 73 2.1 WSW 9 13 5 7 1019.9 1019.8 0.0
04/03:00am 10.4 7.9 5.0 69 2.4 SSW 7 9 4 5 1019.9 1019.8 0.0
04/02:30am 11.2 9.4 5.5 68 2.6 WNW 4 11 2 6 1020.0 1019.9 0.0
04/02:00am 11.6 8.1 5.5 66 2.8 W 13 24 7 13 1020.0 1019.9 0.0
04/01:30am 11.3 10.3 5.8 69 2.6 CALM 0 0 0 0 1020.5 1020.4 0.0
04/01:00am 12.3 10.9 5.7 64 3.1 W 2 6 1 3 1020.4 1020.3 0.0
04/12:30am 13.2 10.9 5.9 61 3.5 WNW 7 11 4 6 1020.4 1020.3 0.0
04/12:00am 14.0 11.7 5.9 58 3.8 WNW 7 11 4 6 1020.4 1020.3 0.0
 
Date/Time
EST
Temp
°C
App
Temp
°C
Dew
Point
°C
Rel
Hum
%
Delta-T
°C
Wind Press
QNH
hPa
Press
MSL
hPa
Rain since
9am
mm
Dir  Spd
km/h
Gust
km/h
Spd
kts
Gust
kts
03/11:30pm 14.5 11.1 6.1 57 4.0 W 13 19 7 10 1020.2 1020.1 0.0
03/11:00pm 15.0 12.0 6.0 55 4.3 WNW 11 20 6 11 1020.0 1019.9 0.0
03/10:30pm 15.5 11.8 6.2 54 4.5 WNW 15 26 8 14 1019.6 1019.5 0.0
03/10:00pm 15.8 11.8 6.5 54 4.5 WSW 17 24 9 13 1019.4 1019.3 0.0
03/09:30pm 16.7 12.6 6.2 50 5.1 WSW 17 30 9 16 1019.1 1019.0 0.0
03/09:00pm 16.9 13.5 6.1 49 5.3 SW 13 20 7 11 1018.5 1018.4 0.0
03/08:30pm 17.8 13.1 6.0 46 5.8 WSW 20 28 11 15 1017.6 1017.5 0.0
03/08:00pm 17.9 15.0 4.8 42 6.3 SW 9 15 5 8 1017.3 1017.2 0.0
03/07:30pm 18.3 14.7 4.8 41 6.5 WSW 13 19 7 10 1016.3 1016.2 0.0
03/07:00pm 19.3 15.6 4.6 38 7.1 W 13 17 7 9 1015.5 1015.4 0.0
03/06:30pm 20.4 16.7 4.4 35 7.8 W 13 20 7 11 1015.0 1014.9 0.0
03/06:00pm 21.0 16.0 3.7 32 8.3 W 19 33 10 18 1014.2 1014.2 0.0
03/05:30pm 22.0 17.8 3.6 30 8.9 WSW 15 24 8 13 1013.8 1013.8 0.0
03/05:00pm 23.5 19.2 3.4 27 9.8 WSW 15 22 8 12 1013.2 1013.2 0.0
03/04:30pm 24.4 19.7 3.1 25 10.4 W 17 28 9 15 1012.6 1012.6 0.0
03/04:00pm 24.9 19.6 3.0 24 10.7 W 20 35 11 19 1012.1 1012.1 0.0
03/03:30pm 25.1 19.5 3.7 25 10.6 W 22 35 12 19 1011.7 1011.7 0.0
03/03:00pm 25.5 20.0 4.0 25 10.7 W 22 35 12 19 1011.6 1011.6 0.0
03/02:30pm 25.3 19.5 4.4 26 10.5 W 24 39 13 21 1011.2 1011.2 0.0
03/02:00pm 25.3 20.5 5.5 28 10.1 WNW 20 32 11 17 1011.1 1011.1 0.0
03/01:30pm 25.1 20.0 5.8 29 9.9 W 22 33 12 18 1010.9 1010.9 0.0
03/01:00pm 25.1 19.5 7.3 32 9.4 WSW 26 44 14 24 1010.8 1010.8 0.0
03/12:30pm 25.4 20.0 8.0 33 9.3 WSW 26 41 14 22 1011.0 1011.0 0.0
03/12:10pm 24.6 19.0 7.3 33 9.1 W 26 43 14 23 1011.0 1011.0 0.0
03/12:00pm 24.4 18.6 8.0 35 8.7 WSW 28 46 15 25 1011.0 1011.0 0.0
03/11:58am 24.5 18.7 8.0 35 8.8 WSW 28 46 15 25 1011.0 1011.0 0.0
03/11:51am 24.8 19.1 8.3 35 8.8 W 28 41 15 22 1011.1 1011.1 0.0
03/11:35am 25.2 19.5 8.2 34 9.1 WSW 28 46 15 25 1011.1 1011.1 0.0
03/11:30am 24.4 17.7 7.5 34 8.9 WSW 32 46 17 25 1011.1 1011.1 0.0
03/11:00am 25.0 19.7 8.5 35 8.9 WSW 26 43 14 23 1010.7 1010.7 0.0
03/10:30am 24.9 20.8 8.8 36 8.7 WSW 20 37 11 20 1010.7 1010.7 0.0
03/10:00am 24.5 22.5 10.0 40 8.0 W 11 24 6 13 1010.5 1010.5 0.0
03/09:30am 24.3 21.7 10.6 42 7.6 WNW 15 24 8 13 1010.2 1010.2 0.0
03/09:00am 22.0 21.1 11.4 51 5.9 WSW 7 11 4 6 1010.1 1010.1 0.0
03/08:30am 20.3 19.4 11.5 57 4.9 W 7 11 4 6 1009.9 1009.9 0.0
03/08:00am 18.8 17.8 10.9 60 4.3 NW 7 11 4 6 1009.7 1009.6 0.0
03/07:30am 17.3 17.7 11.1 67 3.4 CALM 0 0 0 0 1009.8 1009.8 0.0
03/07:00am 14.3 13.4 10.5 78 2.0 W 6 9 3 5 1009.8 1009.8 0.0
03/06:30am 13.9 13.2 10.1 78 2.0 SW 4 7 2 4 1009.6 1009.5 0.0
03/06:00am 15.8 15.0 9.7 67 3.2 N 4 6 2 3 1009.7 1009.6 0.0
03/05:30am 16.3 15.0 9.9 66 3.4 ENE 7 13 4 7 1009.5 1009.4 0.0
03/05:00am 15.6 15.6 11.0 74 2.5 SSE 2 7 1 4 1010.0 1010.0 0.0
03/04:30am 16.5 14.9 10.1 66 3.4 SSW 9 13 5 7 1010.9 1010.9 0.0
03/04:00am 16.4 13.9 9.8 65 3.5 WSW 13 15 7 8 1011.6 1011.6 0.0
03/03:30am 17.3 16.8 9.2 59 4.2 N 2 7 1 4 1010.6 1010.6 0.0
03/03:00am 16.1 14.7 8.8 62 3.8 W 6 7 3 4 1011.0 1011.0 0.0
03/02:30am 16.6 15.3 9.1 61 3.9 WNW 6 9 3 5 1011.5 1011.5 0.0
03/02:00am 16.1 16.0 9.5 65 3.4 CALM 0 0 0 0 1012.0 1012.0 0.0
03/01:30am 16.6 16.1 9.3 62 3.8 N 2 7 1 4 1012.4 1012.4 0.0
03/01:00am 16.6 16.0 9.1 61 3.9 N 2 6 1 3 1012.5 1012.5 0.0
03/12:30am 15.5 15.5 9.8 69 3.0 CALM 0 0 0 0 1012.9 1012.9 0.0
03/12:00am 15.2 14.2 8.7 65 3.3 N 4 7 2 4 1013.2 1013.2 0.0
 
Date/Time
EST
Temp
°C
App
Temp
°C
Dew
Point
°C
Rel
Hum
%
Delta-T
°C
Wind Press
QNH
hPa
Press
MSL
hPa
Rain since
9am
mm
Dir  Spd
km/h
Gust
km/h
Spd
kts
Gust
kts
02/11:30pm 14.6 14.3 8.8 68 3.0 CALM 0 0 0 0 1013.4 1013.4 0.0
02/11:00pm 14.8 14.5 8.7 67 3.1 CALM 0 0 0 0 1013.7 1013.7 0.0
02/10:30pm 14.9 14.6 8.8 67 3.1 CALM 0 0 0 0 1014.0 1014.0 0.0
02/10:00pm 15.2 15.0 8.9 66 3.2 CALM 0 0 0 0 1014.4 1014.3 0.0
02/09:30pm 16.0 15.8 9.0 63 3.6 CALM 0 0 0 0 1014.5 1014.4 0.0
02/09:00pm 16.2 16.0 8.9 62 3.8 CALM 0 0 0 0 1014.5 1014.4 0.0
02/08:30pm 17.4 17.1 8.5 56 4.6 CALM 0 0 0 0 1014.6 1014.5 0.0
02/08:00pm 20.3 18.4 7.7 44 6.5 WNW 7 13 4 7 1014.2 1014.2 0.0
02/07:30pm 20.5 18.6 7.5 43 6.7 NW 7 11 4 6 1014.2 1014.2 0.0
02/07:00pm 21.0 18.7 7.6 42 6.9 WNW 9 13 5 7 1013.9 1013.9 0.0
02/06:30pm 21.7 19.9 7.9 41 7.2 NW 7 11 4 6 1013.6 1013.6 0.0

Latest Capital City Observations: Canberra | Sydney | Melbourne | Brisbane | Adelaide | Perth | Hobart | Darwin

Other formats

Comma delimited format used in spreadsheet applications
http://www.bom.gov.au/fwo/IDN60901/IDN60901.95761.axf

JavaScript Object Notation format (JSON) in row-major order
http://www.bom.gov.au/fwo/IDN60901/IDN60901.95761.json

Data quality

Most of these data are generated automatically and are frequently updated. Quality checks on data are not normally performed. It is possible for incorrect values to appear. Refer to information at About Latest Weather Observations and please check the disclaimer before using these data.